sensor_id;sensor_type;location;lat;lon;timestamp;P1;durP1;ratioP1;P2;durP2;ratioP2
59388;SDS011;51830;45.202;19.720;2023-02-15T00:01:36;20.33;;;8.88;;
59388;SDS011;51830;45.202;19.720;2023-02-15T00:04:03;18.52;;;7.28;;
59388;SDS011;51830;45.202;19.720;2023-02-15T00:06:30;27.42;;;9.55;;
59388;SDS011;51830;45.202;19.720;2023-02-15T00:08:57;25.70;;;9.95;;
59388;SDS011;51830;45.202;19.720;2023-02-15T00:11:23;21.95;;;8.45;;
59388;SDS011;51830;45.202;19.720;2023-02-15T00:14:14;23.45;;;7.30;;
59388;SDS011;51830;45.202;19.720;2023-02-15T00:16:41;22.40;;;7.68;;
59388;SDS011;51830;45.202;19.720;2023-02-15T00:19:08;15.77;;;6.88;;
59388;SDS011;51830;45.202;19.720;2023-02-15T00:21:35;15.63;;;4.85;;
59388;SDS011;51830;45.202;19.720;2023-02-15T00:24:02;24.20;;;7.43;;
59388;SDS011;51830;45.202;19.720;2023-02-15T00:26:28;16.52;;;6.15;;
59388;SDS011;51830;45.202;19.720;2023-02-15T00:28:55;16.60;;;5.95;;
59388;SDS011;51830;45.202;19.720;2023-02-15T00:31:23;18.92;;;5.90;;
59388;SDS011;51830;45.202;19.720;2023-02-15T00:33:50;15.40;;;4.35;;
59388;SDS011;51830;45.202;19.720;2023-02-15T00:36:16;17.95;;;5.72;;
59388;SDS011;51830;45.202;19.720;2023-02-15T00:38:42;15.45;;;5.57;;
59388;SDS011;51830;45.202;19.720;2023-02-15T00:41:08;14.18;;;5.53;;
59388;SDS011;51830;45.202;19.720;2023-02-15T00:43:35;14.27;;;4.93;;
59388;SDS011;51830;45.202;19.720;2023-02-15T00:46:02;16.90;;;5.30;;
59388;SDS011;51830;45.202;19.720;2023-02-15T00:48:28;14.60;;;5.35;;
59388;SDS011;51830;45.202;19.720;2023-02-15T00:50:56;24.40;;;7.05;;
59388;SDS011;51830;45.202;19.720;2023-02-15T00:53:23;20.27;;;7.10;;
59388;SDS011;51830;45.202;19.720;2023-02-15T00:55:49;18.13;;;7.18;;
59388;SDS011;51830;45.202;19.720;2023-02-15T00:58:15;20.67;;;7.03;;
59388;SDS011;51830;45.202;19.720;2023-02-15T01:00:43;19.65;;;6.78;;
59388;SDS011;51830;45.202;19.720;2023-02-15T01:03:09;20.92;;;7.65;;
59388;SDS011;51830;45.202;19.720;2023-02-15T01:05:36;17.20;;;6.78;;
59388;SDS011;51830;45.202;19.720;2023-02-15T01:08:02;20.38;;;6.90;;
59388;SDS011;51830;45.202;19.720;2023-02-15T01:10:28;22.08;;;7.82;;
59388;SDS011;51830;45.202;19.720;2023-02-15T01:12:55;17.52;;;5.68;;
59388;SDS011;51830;45.202;19.720;2023-02-15T01:15:21;21.00;;;7.55;;
59388;SDS011;51830;45.202;19.720;2023-02-15T01:17:48;18.42;;;5.43;;
59388;SDS011;51830;45.202;19.720;2023-02-15T01:20:22;20.55;;;7.55;;
59388;SDS011;51830;45.202;19.720;2023-02-15T01:22:50;17.05;;;6.72;;
59388;SDS011;51830;45.202;19.720;2023-02-15T01:25:17;23.33;;;7.40;;
59388;SDS011;51830;45.202;19.720;2023-02-15T01:27:43;19.27;;;7.00;;
59388;SDS011;51830;45.202;19.720;2023-02-15T01:30:10;31.60;;;8.80;;
59388;SDS011;51830;45.202;19.720;2023-02-15T01:32:36;17.48;;;7.07;;
59388;SDS011;51830;45.202;19.720;2023-02-15T01:35:02;34.25;;;10.40;;
59388;SDS011;51830;45.202;19.720;2023-02-15T01:37:32;47.25;;;18.13;;
59388;SDS011;51830;45.202;19.720;2023-02-15T01:39:58;46.13;;;17.38;;
59388;SDS011;51830;45.202;19.720;2023-02-15T01:42:27;30.83;;;11.50;;
59388;SDS011;51830;45.202;19.720;2023-02-15T01:44:55;29.75;;;11.10;;
59388;SDS011;51830;45.202;19.720;2023-02-15T01:49:58;22.98;;;9.32;;
59388;SDS011;51830;45.202;19.720;2023-02-15T01:52:25;30.42;;;8.48;;
59388;SDS011;51830;45.202;19.720;2023-02-15T01:54:52;26.02;;;11.07;;
59388;SDS011;51830;45.202;19.720;2023-02-15T01:57:19;25.23;;;8.63;;
59388;SDS011;51830;45.202;19.720;2023-02-15T01:59:48;33.92;;;14.80;;
59388;SDS011;51830;45.202;19.720;2023-02-15T02:02:15;26.33;;;11.02;;
59388;SDS011;51830;45.202;19.720;2023-02-15T02:04:47;17.65;;;7.22;;
59388;SDS011;51830;45.202;19.720;2023-02-15T02:07:14;22.45;;;9.63;;
59388;SDS011;51830;45.202;19.720;2023-02-15T02:09:41;24.05;;;10.57;;
59388;SDS011;51830;45.202;19.720;2023-02-15T02:12:08;25.10;;;9.25;;
59388;SDS011;51830;45.202;19.720;2023-02-15T02:14:35;26.27;;;8.57;;
59388;SDS011;51830;45.202;19.720;2023-02-15T02:30:15;18.33;;;7.03;;
59388;SDS011;51830;45.202;19.720;2023-02-15T02:43:20;16.65;;;6.53;;
59388;SDS011;51830;45.202;19.720;2023-02-15T02:46:01;20.67;;;6.47;;
59388;SDS011;51830;45.202;19.720;2023-02-15T02:48:29;16.77;;;5.30;;
59388;SDS011;51830;45.202;19.720;2023-02-15T02:50:56;19.73;;;6.55;;
59388;SDS011;51830;45.202;19.720;2023-02-15T02:53:22;14.57;;;5.63;;
59388;SDS011;51830;45.202;19.720;2023-02-15T02:55:53;16.67;;;6.50;;
59388;SDS011;51830;45.202;19.720;2023-02-15T02:58:29;21.92;;;7.90;;
59388;SDS011;51830;45.202;19.720;2023-02-15T03:00:59;20.30;;;7.30;;
59388;SDS011;51830;45.202;19.720;2023-02-15T03:03:27;20.98;;;6.65;;
59388;SDS011;51830;45.202;19.720;2023-02-15T03:05:57;15.55;;;5.80;;
59388;SDS011;51830;45.202;19.720;2023-02-15T03:08:26;22.35;;;7.47;;
59388;SDS011;51830;45.202;19.720;2023-02-15T03:10:53;14.07;;;5.25;;
59388;SDS011;51830;45.202;19.720;2023-02-15T03:13:21;18.83;;;5.55;;
59388;SDS011;51830;45.202;19.720;2023-02-15T03:15:48;25.08;;;7.80;;
59388;SDS011;51830;45.202;19.720;2023-02-15T03:18:34;18.75;;;6.63;;
59388;SDS011;51830;45.202;19.720;2023-02-15T03:21:01;19.83;;;6.20;;
59388;SDS011;51830;45.202;19.720;2023-02-15T03:23:28;15.15;;;6.30;;
59388;SDS011;51830;45.202;19.720;2023-02-15T03:25:59;16.85;;;6.45;;
59388;SDS011;51830;45.202;19.720;2023-02-15T03:28:31;22.27;;;7.97;;
59388;SDS011;51830;45.202;19.720;2023-02-15T03:31:00;22.42;;;9.65;;
59388;SDS011;51830;45.202;19.720;2023-02-15T03:33:26;22.02;;;8.85;;
59388;SDS011;51830;45.202;19.720;2023-02-15T03:36:04;18.42;;;8.38;;
59388;SDS011;51830;45.202;19.720;2023-02-15T03:38:42;17.35;;;7.07;;
59388;SDS011;51830;45.202;19.720;2023-02-15T03:41:11;17.05;;;6.78;;
59388;SDS011;51830;45.202;19.720;2023-02-15T03:43:40;23.30;;;6.78;;
59388;SDS011;51830;45.202;19.720;2023-02-15T03:46:20;21.58;;;8.43;;
59388;SDS011;51830;45.202;19.720;2023-02-15T03:48:52;15.57;;;6.30;;
59388;SDS011;51830;45.202;19.720;2023-02-15T03:51:23;15.57;;;6.55;;
59388;SDS011;51830;45.202;19.720;2023-02-15T03:54:01;19.80;;;6.90;;
59388;SDS011;51830;45.202;19.720;2023-02-15T03:56:28;20.65;;;6.82;;
59388;SDS011;51830;45.202;19.720;2023-02-15T03:58:54;21.33;;;6.40;;
59388;SDS011;51830;45.202;19.720;2023-02-15T04:04:25;13.75;;;4.20;;
59388;SDS011;51830;45.202;19.720;2023-02-15T04:06:52;27.80;;;9.15;;
59388;SDS011;51830;45.202;19.720;2023-02-15T04:09:18;24.85;;;8.07;;
59388;SDS011;51830;45.202;19.720;2023-02-15T04:12:03;16.95;;;6.97;;
59388;SDS011;51830;45.202;19.720;2023-02-15T04:14:29;26.23;;;6.40;;
59388;SDS011;51830;45.202;19.720;2023-02-15T04:17:14;19.53;;;6.93;;
59388;SDS011;51830;45.202;19.720;2023-02-15T04:19:40;19.47;;;7.63;;
59388;SDS011;51830;45.202;19.720;2023-02-15T04:22:25;16.50;;;6.00;;
59388;SDS011;51830;45.202;19.720;2023-02-15T04:25:09;23.00;;;8.77;;
59388;SDS011;51830;45.202;19.720;2023-02-15T04:27:45;20.40;;;8.52;;
59388;SDS011;51830;45.202;19.720;2023-02-15T04:30:12;17.17;;;7.07;;
59388;SDS011;51830;45.202;19.720;2023-02-15T04:32:39;14.70;;;5.22;;
59388;SDS011;51830;45.202;19.720;2023-02-15T04:35:05;18.20;;;6.50;;
59388;SDS011;51830;45.202;19.720;2023-02-15T04:37:32;20.33;;;7.88;;
59388;SDS011;51830;45.202;19.720;2023-02-15T04:39:58;16.88;;;6.75;;
59388;SDS011;51830;45.202;19.720;2023-02-15T04:42:25;20.83;;;7.05;;
59388;SDS011;51830;45.202;19.720;2023-02-15T04:44:51;20.52;;;6.72;;
59388;SDS011;51830;45.202;19.720;2023-02-15T04:47:17;16.52;;;6.90;;
59388;SDS011;51830;45.202;19.720;2023-02-15T04:49:44;22.30;;;8.30;;
59388;SDS011;51830;45.202;19.720;2023-02-15T04:52:10;20.93;;;7.30;;
59388;SDS011;51830;45.202;19.720;2023-02-15T04:54:36;17.17;;;7.00;;
59388;SDS011;51830;45.202;19.720;2023-02-15T04:57:03;20.65;;;8.88;;
59388;SDS011;51830;45.202;19.720;2023-02-15T04:59:30;14.52;;;6.28;;
59388;SDS011;51830;45.202;19.720;2023-02-15T05:01:57;22.67;;;9.95;;
59388;SDS011;51830;45.202;19.720;2023-02-15T05:04:23;16.42;;;7.60;;
59388;SDS011;51830;45.202;19.720;2023-02-15T05:06:49;18.67;;;7.75;;
59388;SDS011;51830;45.202;19.720;2023-02-15T05:09:16;18.55;;;8.25;;
59388;SDS011;51830;45.202;19.720;2023-02-15T05:11:43;25.42;;;7.90;;
59388;SDS011;51830;45.202;19.720;2023-02-15T05:14:09;18.90;;;7.10;;
59388;SDS011;51830;45.202;19.720;2023-02-15T05:16:35;17.65;;;7.72;;
59388;SDS011;51830;45.202;19.720;2023-02-15T05:19:02;21.50;;;6.85;;
59388;SDS011;51830;45.202;19.720;2023-02-15T05:21:28;16.58;;;7.03;;
59388;SDS011;51830;45.202;19.720;2023-02-15T05:23:55;26.27;;;9.93;;
59388;SDS011;51830;45.202;19.720;2023-02-15T05:26:22;23.27;;;7.87;;
59388;SDS011;51830;45.202;19.720;2023-02-15T05:29:07;19.47;;;8.90;;
59388;SDS011;51830;45.202;19.720;2023-02-15T05:31:33;18.20;;;6.87;;
59388;SDS011;51830;45.202;19.720;2023-02-15T05:34:00;24.90;;;8.70;;
59388;SDS011;51830;45.202;19.720;2023-02-15T05:36:26;15.40;;;6.07;;
59388;SDS011;51830;45.202;19.720;2023-02-15T05:38:54;26.10;;;8.75;;
59388;SDS011;51830;45.202;19.720;2023-02-15T05:41:20;23.75;;;7.90;;
59388;SDS011;51830;45.202;19.720;2023-02-15T05:43:47;21.65;;;8.25;;
59388;SDS011;51830;45.202;19.720;2023-02-15T05:46:13;20.58;;;8.57;;
59388;SDS011;51830;45.202;19.720;2023-02-15T05:48:39;16.88;;;8.02;;
59388;SDS011;51830;45.202;19.720;2023-02-15T05:51:14;17.07;;;7.13;;
59388;SDS011;51830;45.202;19.720;2023-02-15T05:53:42;25.13;;;8.88;;
59388;SDS011;51830;45.202;19.720;2023-02-15T05:56:09;23.27;;;8.85;;
59388;SDS011;51830;45.202;19.720;2023-02-15T05:58:39;23.20;;;7.80;;
59388;SDS011;51830;45.202;19.720;2023-02-15T06:03:38;23.20;;;10.10;;
59388;SDS011;51830;45.202;19.720;2023-02-15T06:06:04;24.00;;;9.70;;
59388;SDS011;51830;45.202;19.720;2023-02-15T06:08:32;23.90;;;10.20;;
59388;SDS011;51830;45.202;19.720;2023-02-15T06:10:58;24.02;;;9.98;;
59388;SDS011;51830;45.202;19.720;2023-02-15T06:13:24;30.40;;;9.48;;
59388;SDS011;51830;45.202;19.720;2023-02-15T06:15:50;26.60;;;9.90;;
59388;SDS011;51830;45.202;19.720;2023-02-15T06:18:17;25.08;;;11.85;;
59388;SDS011;51830;45.202;19.720;2023-02-15T06:20:45;34.45;;;11.50;;
59388;SDS011;51830;45.202;19.720;2023-02-15T06:23:11;21.30;;;8.98;;
59388;SDS011;51830;45.202;19.720;2023-02-15T06:25:38;30.80;;;12.05;;
59388;SDS011;51830;45.202;19.720;2023-02-15T06:28:04;27.98;;;11.98;;
59388;SDS011;51830;45.202;19.720;2023-02-15T06:30:30;27.52;;;13.63;;
59388;SDS011;51830;45.202;19.720;2023-02-15T06:32:56;28.33;;;12.70;;
59388;SDS011;51830;45.202;19.720;2023-02-15T06:35:23;41.17;;;14.18;;
59388;SDS011;51830;45.202;19.720;2023-02-15T06:37:49;39.20;;;17.80;;
59388;SDS011;51830;45.202;19.720;2023-02-15T06:40:15;48.25;;;19.10;;
59388;SDS011;51830;45.202;19.720;2023-02-15T06:42:41;41.10;;;17.35;;
59388;SDS011;51830;45.202;19.720;2023-02-15T06:45:08;33.13;;;16.40;;
59388;SDS011;51830;45.202;19.720;2023-02-15T06:47:35;34.70;;;14.27;;
59388;SDS011;51830;45.202;19.720;2023-02-15T06:50:01;34.05;;;12.90;;
59388;SDS011;51830;45.202;19.720;2023-02-15T06:52:27;34.03;;;12.95;;
59388;SDS011;51830;45.202;19.720;2023-02-15T06:54:54;38.38;;;14.20;;
59388;SDS011;51830;45.202;19.720;2023-02-15T06:57:20;39.78;;;14.95;;
59388;SDS011;51830;45.202;19.720;2023-02-15T06:59:47;35.10;;;13.63;;
59388;SDS011;51830;45.202;19.720;2023-02-15T07:02:13;28.10;;;13.82;;
59388;SDS011;51830;45.202;19.720;2023-02-15T07:04:39;31.83;;;13.70;;
59388;SDS011;51830;45.202;19.720;2023-02-15T07:07:09;35.13;;;11.20;;
59388;SDS011;51830;45.202;19.720;2023-02-15T07:09:36;28.33;;;12.63;;
59388;SDS011;51830;45.202;19.720;2023-02-15T07:12:02;51.15;;;15.68;;
59388;SDS011;51830;45.202;19.720;2023-02-15T07:14:48;32.90;;;13.90;;
59388;SDS011;51830;45.202;19.720;2023-02-15T07:17:14;32.75;;;15.93;;
59388;SDS011;51830;45.202;19.720;2023-02-15T07:19:40;36.10;;;14.38;;
59388;SDS011;51830;45.202;19.720;2023-02-15T07:22:06;47.25;;;18.58;;
59388;SDS011;51830;45.202;19.720;2023-02-15T07:24:33;41.90;;;16.92;;
59388;SDS011;51830;45.202;19.720;2023-02-15T07:26:59;30.33;;;15.00;;
59388;SDS011;51830;45.202;19.720;2023-02-15T07:29:25;46.70;;;18.40;;
59388;SDS011;51830;45.202;19.720;2023-02-15T07:31:51;65.55;;;23.33;;
59388;SDS011;51830;45.202;19.720;2023-02-15T07:34:18;49.75;;;21.83;;
59388;SDS011;51830;45.202;19.720;2023-02-15T07:36:44;60.10;;;22.17;;
59388;SDS011;51830;45.202;19.720;2023-02-15T07:39:10;65.53;;;27.73;;
59388;SDS011;51830;45.202;19.720;2023-02-15T07:41:37;58.55;;;25.95;;
59388;SDS011;51830;45.202;19.720;2023-02-15T07:44:03;45.03;;;18.75;;
59388;SDS011;51830;45.202;19.720;2023-02-15T07:46:30;34.92;;;18.20;;
59388;SDS011;51830;45.202;19.720;2023-02-15T07:48:56;48.03;;;20.73;;
59388;SDS011;51830;45.202;19.720;2023-02-15T07:51:23;47.20;;;18.85;;
59388;SDS011;51830;45.202;19.720;2023-02-15T07:53:49;50.28;;;23.23;;
59388;SDS011;51830;45.202;19.720;2023-02-15T07:56:16;48.92;;;21.58;;
59388;SDS011;51830;45.202;19.720;2023-02-15T07:58:43;37.55;;;17.50;;
59388;SDS011;51830;45.202;19.720;2023-02-15T08:01:25;35.10;;;17.42;;
59388;SDS011;51830;45.202;19.720;2023-02-15T08:03:53;36.97;;;16.00;;
59388;SDS011;51830;45.202;19.720;2023-02-15T08:06:20;24.13;;;10.82;;
59388;SDS011;51830;45.202;19.720;2023-02-15T08:08:46;24.85;;;9.45;;
59388;SDS011;51830;45.202;19.720;2023-02-15T08:11:19;24.10;;;8.85;;
59388;SDS011;51830;45.202;19.720;2023-02-15T08:13:59;25.23;;;10.90;;
59388;SDS011;51830;45.202;19.720;2023-02-15T08:18:54;27.55;;;10.98;;
59388;SDS011;51830;45.202;19.720;2023-02-15T08:21:21;27.63;;;11.68;;
59388;SDS011;51830;45.202;19.720;2023-02-15T08:23:47;30.63;;;11.75;;
59388;SDS011;51830;45.202;19.720;2023-02-15T08:26:13;24.67;;;10.43;;
59388;SDS011;51830;45.202;19.720;2023-02-15T08:28:40;35.45;;;13.65;;
59388;SDS011;51830;45.202;19.720;2023-02-15T08:31:08;32.55;;;12.25;;
59388;SDS011;51830;45.202;19.720;2023-02-15T08:33:35;27.60;;;13.05;;
59388;SDS011;51830;45.202;19.720;2023-02-15T08:36:02;29.77;;;11.75;;
59388;SDS011;51830;45.202;19.720;2023-02-15T08:38:28;31.20;;;11.80;;
59388;SDS011;51830;45.202;19.720;2023-02-15T08:40:54;31.90;;;14.02;;
59388;SDS011;51830;45.202;19.720;2023-02-15T08:43:21;25.77;;;9.75;;
59388;SDS011;51830;45.202;19.720;2023-02-15T08:45:47;29.63;;;12.57;;
59388;SDS011;51830;45.202;19.720;2023-02-15T08:48:13;22.92;;;9.93;;
59388;SDS011;51830;45.202;19.720;2023-02-15T08:50:39;25.85;;;9.40;;
59388;SDS011;51830;45.202;19.720;2023-02-15T08:53:07;24.50;;;9.70;;
59388;SDS011;51830;45.202;19.720;2023-02-15T08:55:33;22.08;;;8.27;;
59388;SDS011;51830;45.202;19.720;2023-02-15T08:57:59;23.88;;;8.38;;
59388;SDS011;51830;45.202;19.720;2023-02-15T09:00:25;23.23;;;7.80;;
59388;SDS011;51830;45.202;19.720;2023-02-15T09:02:53;21.83;;;8.77;;
59388;SDS011;51830;45.202;19.720;2023-02-15T09:05:20;25.67;;;9.48;;
59388;SDS011;51830;45.202;19.720;2023-02-15T09:07:46;24.55;;;8.15;;
59388;SDS011;51830;45.202;19.720;2023-02-15T09:10:12;21.90;;;7.70;;
59388;SDS011;51830;45.202;19.720;2023-02-15T09:12:39;21.42;;;7.78;;
59388;SDS011;51830;45.202;19.720;2023-02-15T09:15:05;19.65;;;8.52;;
59388;SDS011;51830;45.202;19.720;2023-02-15T09:17:31;18.85;;;6.60;;
59388;SDS011;51830;45.202;19.720;2023-02-15T09:19:57;18.98;;;6.68;;
59388;SDS011;51830;45.202;19.720;2023-02-15T09:22:23;21.15;;;7.32;;
59388;SDS011;51830;45.202;19.720;2023-02-15T09:24:49;20.40;;;7.30;;
59388;SDS011;51830;45.202;19.720;2023-02-15T09:27:16;18.52;;;6.22;;
59388;SDS011;51830;45.202;19.720;2023-02-15T09:29:42;22.05;;;7.20;;
59388;SDS011;51830;45.202;19.720;2023-02-15T09:32:08;21.48;;;6.93;;
59388;SDS011;51830;45.202;19.720;2023-02-15T09:34:34;18.90;;;6.03;;
59388;SDS011;51830;45.202;19.720;2023-02-15T09:37:00;19.52;;;6.55;;
59388;SDS011;51830;45.202;19.720;2023-02-15T09:39:27;20.17;;;7.47;;
59388;SDS011;51830;45.202;19.720;2023-02-15T09:49:29;22.20;;;7.05;;
59388;SDS011;51830;45.202;19.720;2023-02-15T09:52:04;18.67;;;7.18;;
59388;SDS011;51830;45.202;19.720;2023-02-15T09:57:05;20.92;;;8.05;;
59388;SDS011;51830;45.202;19.720;2023-02-15T09:59:52;20.30;;;6.95;;
59388;SDS011;51830;45.202;19.720;2023-02-15T10:05:00;22.33;;;7.85;;
59388;SDS011;51830;45.202;19.720;2023-02-15T10:12:37;22.45;;;8.00;;
59388;SDS011;51830;45.202;19.720;2023-02-15T10:17:46;21.05;;;7.03;;
59388;SDS011;51830;45.202;19.720;2023-02-15T10:23:13;23.70;;;6.13;;
59388;SDS011;51830;45.202;19.720;2023-02-15T10:28:18;20.95;;;7.70;;
59388;SDS011;51830;45.202;19.720;2023-02-15T10:38:18;22.83;;;7.53;;
59388;SDS011;51830;45.202;19.720;2023-02-15T10:45:54;22.15;;;8.23;;
59388;SDS011;51830;45.202;19.720;2023-02-15T10:50:55;19.48;;;6.20;;
59388;SDS011;51830;45.202;19.720;2023-02-15T10:58:38;19.35;;;6.80;;
59388;SDS011;51830;45.202;19.720;2023-02-15T11:01:15;20.98;;;7.38;;
59388;SDS011;51830;45.202;19.720;2023-02-15T11:06:21;19.02;;;7.50;;
59388;SDS011;51830;45.202;19.720;2023-02-15T11:08:50;18.98;;;6.53;;
59388;SDS011;51830;45.202;19.720;2023-02-15T11:11:21;20.15;;;7.75;;
59388;SDS011;51830;45.202;19.720;2023-02-15T11:13:50;20.83;;;7.60;;
59388;SDS011;51830;45.202;19.720;2023-02-15T11:16:18;22.52;;;6.35;;
59388;SDS011;51830;45.202;19.720;2023-02-15T11:18:48;23.95;;;8.77;;
59388;SDS011;51830;45.202;19.720;2023-02-15T11:21:20;21.42;;;7.80;;
59388;SDS011;51830;45.202;19.720;2023-02-15T11:23:48;19.95;;;7.95;;
59388;SDS011;51830;45.202;19.720;2023-02-15T11:28:55;20.40;;;7.68;;
59388;SDS011;51830;45.202;19.720;2023-02-15T11:31:23;20.17;;;7.07;;
59388;SDS011;51830;45.202;19.720;2023-02-15T11:33:55;22.23;;;8.48;;
59388;SDS011;51830;45.202;19.720;2023-02-15T11:36:26;23.73;;;9.13;;
59388;SDS011;51830;45.202;19.720;2023-02-15T11:39:02;20.27;;;7.35;;
59388;SDS011;51830;45.202;19.720;2023-02-15T11:41:31;19.80;;;7.70;;
59388;SDS011;51830;45.202;19.720;2023-02-15T11:44:00;22.17;;;7.05;;
59388;SDS011;51830;45.202;19.720;2023-02-15T11:46:30;22.20;;;8.25;;
59388;SDS011;51830;45.202;19.720;2023-02-15T11:48:57;22.73;;;8.10;;
59388;SDS011;51830;45.202;19.720;2023-02-15T11:51:23;23.40;;;8.00;;
59388;SDS011;51830;45.202;19.720;2023-02-15T11:53:50;21.58;;;8.10;;
59388;SDS011;51830;45.202;19.720;2023-02-15T11:56:21;21.77;;;8.50;;
59388;SDS011;51830;45.202;19.720;2023-02-15T12:03:50;20.30;;;8.20;;
59388;SDS011;51830;45.202;19.720;2023-02-15T12:06:30;19.52;;;6.15;;
59388;SDS011;51830;45.202;19.720;2023-02-15T12:09:17;22.60;;;8.57;;
59388;SDS011;51830;45.202;19.720;2023-02-15T12:11:46;20.80;;;7.75;;
59388;SDS011;51830;45.202;19.720;2023-02-15T12:14:13;21.13;;;7.30;;
59388;SDS011;51830;45.202;19.720;2023-02-15T12:16:42;22.73;;;7.55;;
59388;SDS011;51830;45.202;19.720;2023-02-15T12:21:54;20.70;;;6.97;;
59388;SDS011;51830;45.202;19.720;2023-02-15T12:24:21;19.70;;;7.68;;
59388;SDS011;51830;45.202;19.720;2023-02-15T12:27:14;20.23;;;6.90;;
59388;SDS011;51830;45.202;19.720;2023-02-15T12:29:41;28.63;;;9.45;;
59388;SDS011;51830;45.202;19.720;2023-02-15T12:32:09;19.63;;;7.28;;
59388;SDS011;51830;45.202;19.720;2023-02-15T12:34:37;19.63;;;7.45;;
59388;SDS011;51830;45.202;19.720;2023-02-15T12:37:10;27.52;;;10.65;;
59388;SDS011;51830;45.202;19.720;2023-02-15T12:39:44;23.30;;;7.45;;
59388;SDS011;51830;45.202;19.720;2023-02-15T12:42:16;20.80;;;7.30;;
59388;SDS011;51830;45.202;19.720;2023-02-15T12:44:55;19.92;;;7.57;;
59388;SDS011;51830;45.202;19.720;2023-02-15T12:47:21;20.83;;;7.22;;
59388;SDS011;51830;45.202;19.720;2023-02-15T12:52:36;20.70;;;7.65;;
59388;SDS011;51830;45.202;19.720;2023-02-15T12:57:42;22.55;;;8.77;;
59388;SDS011;51830;45.202;19.720;2023-02-15T13:02:53;23.27;;;8.20;;
59388;SDS011;51830;45.202;19.720;2023-02-15T13:07:55;25.52;;;7.55;;
59388;SDS011;51830;45.202;19.720;2023-02-15T13:10:23;21.77;;;7.57;;
59388;SDS011;51830;45.202;19.720;2023-02-15T13:12:51;25.08;;;7.95;;
59388;SDS011;51830;45.202;19.720;2023-02-15T13:15:26;22.10;;;7.97;;
59388;SDS011;51830;45.202;19.720;2023-02-15T13:17:53;25.48;;;8.00;;
59388;SDS011;51830;45.202;19.720;2023-02-15T13:20:21;22.60;;;7.53;;
59388;SDS011;51830;45.202;19.720;2023-02-15T13:22:49;22.42;;;7.90;;
59388;SDS011;51830;45.202;19.720;2023-02-15T13:25:20;24.10;;;9.07;;
59388;SDS011;51830;45.202;19.720;2023-02-15T13:28:22;21.73;;;7.82;;
59388;SDS011;51830;45.202;19.720;2023-02-15T13:30:42;21.85;;;8.43;;
59388;SDS011;51830;45.202;19.720;2023-02-15T13:33:16;25.15;;;8.18;;
59388;SDS011;51830;45.202;19.720;2023-02-15T13:35:55;20.25;;;7.32;;
59388;SDS011;51830;45.202;19.720;2023-02-15T13:40:59;23.75;;;8.10;;
59388;SDS011;51830;45.202;19.720;2023-02-15T13:46:05;22.48;;;8.88;;
59388;SDS011;51830;45.202;19.720;2023-02-15T13:51:12;22.02;;;6.88;;
59388;SDS011;51830;45.202;19.720;2023-02-15T13:59:00;22.58;;;7.68;;
59388;SDS011;51830;45.202;19.720;2023-02-15T14:06:30;22.15;;;8.48;;
59388;SDS011;51830;45.202;19.720;2023-02-15T14:17:21;22.38;;;7.63;;
59388;SDS011;51830;45.202;19.720;2023-02-15T14:19:51;23.63;;;7.78;;
59388;SDS011;51830;45.202;19.720;2023-02-15T14:23:01;20.80;;;8.10;;
59388;SDS011;51830;45.202;19.720;2023-02-15T14:25:24;21.88;;;7.93;;
59388;SDS011;51830;45.202;19.720;2023-02-15T14:30:41;24.00;;;8.48;;
59388;SDS011;51830;45.202;19.720;2023-02-15T14:33:25;26.02;;;8.90;;
59388;SDS011;51830;45.202;19.720;2023-02-15T14:35:58;21.75;;;7.70;;
59388;SDS011;51830;45.202;19.720;2023-02-15T14:41:04;24.45;;;9.77;;
59388;SDS011;51830;45.202;19.720;2023-02-15T14:46:09;24.85;;;8.00;;
59388;SDS011;51830;45.202;19.720;2023-02-15T14:54:08;23.40;;;9.13;;
59388;SDS011;51830;45.202;19.720;2023-02-15T14:56:35;22.98;;;9.10;;
59388;SDS011;51830;45.202;19.720;2023-02-15T14:59:17;20.35;;;7.45;;
59388;SDS011;51830;45.202;19.720;2023-02-15T15:01:51;20.77;;;7.97;;
59388;SDS011;51830;45.202;19.720;2023-02-15T15:07:12;20.70;;;7.63;;
59388;SDS011;51830;45.202;19.720;2023-02-15T15:09:40;19.55;;;7.72;;
59388;SDS011;51830;45.202;19.720;2023-02-15T15:14:47;26.00;;;8.10;;
59388;SDS011;51830;45.202;19.720;2023-02-15T15:17:51;22.40;;;7.13;;
59388;SDS011;51830;45.202;19.720;2023-02-15T15:22:28;20.33;;;7.55;;
59388;SDS011;51830;45.202;19.720;2023-02-15T15:25:08;21.13;;;7.82;;
59388;SDS011;51830;45.202;19.720;2023-02-15T15:30:47;24.23;;;9.13;;
59388;SDS011;51830;45.202;19.720;2023-02-15T15:40:40;26.23;;;10.60;;
59388;SDS011;51830;45.202;19.720;2023-02-15T15:45:58;29.80;;;13.35;;
59388;SDS011;51830;45.202;19.720;2023-02-15T15:48:36;25.15;;;11.10;;
59388;SDS011;51830;45.202;19.720;2023-02-15T15:51:27;24.02;;;11.05;;
59388;SDS011;51830;45.202;19.720;2023-02-15T15:53:50;27.00;;;11.98;;
59388;SDS011;51830;45.202;19.720;2023-02-15T15:56:23;36.60;;;15.20;;
59388;SDS011;51830;45.202;19.720;2023-02-15T15:58:51;47.08;;;19.33;;
59388;SDS011;51830;45.202;19.720;2023-02-15T16:01:24;38.95;;;18.13;;
59388;SDS011;51830;45.202;19.720;2023-02-15T16:03:51;35.80;;;16.65;;
59388;SDS011;51830;45.202;19.720;2023-02-15T16:06:27;50.42;;;24.10;;
59388;SDS011;51830;45.202;19.720;2023-02-15T16:08:54;56.28;;;25.10;;
59388;SDS011;51830;45.202;19.720;2023-02-15T16:11:24;112.43;;;42.20;;
59388;SDS011;51830;45.202;19.720;2023-02-15T16:13:51;55.08;;;24.75;;
59388;SDS011;51830;45.202;19.720;2023-02-15T16:16:24;34.40;;;16.10;;
59388;SDS011;51830;45.202;19.720;2023-02-15T16:18:53;47.15;;;19.92;;
59388;SDS011;51830;45.202;19.720;2023-02-15T16:21:21;41.92;;;17.55;;
59388;SDS011;51830;45.202;19.720;2023-02-15T16:26:44;32.75;;;14.65;;
59388;SDS011;51830;45.202;19.720;2023-02-15T16:29:18;38.45;;;14.80;;
59388;SDS011;51830;45.202;19.720;2023-02-15T16:34:51;36.38;;;16.35;;
59388;SDS011;51830;45.202;19.720;2023-02-15T16:37:18;52.40;;;22.83;;
59388;SDS011;51830;45.202;19.720;2023-02-15T16:39:46;33.47;;;13.70;;
59388;SDS011;51830;45.202;19.720;2023-02-15T16:42:13;29.25;;;16.02;;
59388;SDS011;51830;45.202;19.720;2023-02-15T16:44:42;33.63;;;14.98;;
59388;SDS011;51830;45.202;19.720;2023-02-15T16:47:12;37.92;;;15.80;;
59388;SDS011;51830;45.202;19.720;2023-02-15T16:49:40;59.20;;;25.98;;
59388;SDS011;51830;45.202;19.720;2023-02-15T16:52:11;45.10;;;19.35;;
59388;SDS011;51830;45.202;19.720;2023-02-15T16:54:41;55.15;;;21.75;;
59388;SDS011;51830;45.202;19.720;2023-02-15T16:57:29;46.88;;;22.02;;
59388;SDS011;51830;45.202;19.720;2023-02-15T16:59:55;43.35;;;20.08;;
59388;SDS011;51830;45.202;19.720;2023-02-15T17:02:26;100.53;;;35.83;;
59388;SDS011;51830;45.202;19.720;2023-02-15T17:05:15;63.72;;;29.30;;
59388;SDS011;51830;45.202;19.720;2023-02-15T17:10:35;46.10;;;19.90;;
59388;SDS011;51830;45.202;19.720;2023-02-15T17:13:16;48.63;;;22.38;;
59388;SDS011;51830;45.202;19.720;2023-02-15T17:18:27;47.08;;;21.38;;
59388;SDS011;51830;45.202;19.720;2023-02-15T17:20:55;54.15;;;24.02;;
59388;SDS011;51830;45.202;19.720;2023-02-15T17:23:27;38.13;;;19.13;;
59388;SDS011;51830;45.202;19.720;2023-02-15T17:25:54;65.63;;;25.57;;
59388;SDS011;51830;45.202;19.720;2023-02-15T17:28:22;38.40;;;20.00;;